Aérodrome :
LOGIN :

S'inscrire | Disclaimer

   EN    FR    IT 

 










Légende :    VFR   VFR Marginal   IFR   IFR Intensif   IFR Très Intensif
Visi : 
Plafond : 
>= 8 km
>= 3000ft
5 à 8 km
1000 à 3000 ft
1500m à 5 km
500 à 1000 ft
800 à 1500m
200 à 500 ft
< 800m
< 200 ft
Symboles :   Orages  Brouillard  Fortes neiges  Fortes précipitations  Vent > 20 kt
SIGMETs :   Divers  Orages  Givrage  Turbulence  Onde Orograph.  Cendres Volcan.







- Altitude de l'aérodrome : 230 ft


ETHB - Buckeburg Army

DERNIER METAR :
  • 141000Z 27009G21KT 4800 SHRA FEW006 BKN009CB 19/16 Q1010 GRN BLU TEMPO GRN

METARs EXPIRÉS :
  • 140957Z 27009KT 7000 -SHRA FEW007 BKN010TCU 19/16 Q1010 GRN BLU TEMPO GRN
  • 140930Z 28008KT 9999 VCSH FEW006 BKN010TCU BKN035 19/17 Q1010 GRN BLU TEMPO GRN
  • 140920Z 28008KT 6000 -SHRA FEW006 BKN008TCU 18/17 Q1010 RESHRA GRN BLU TEMPO GRN
  • 140913Z 27007KT 3800 SHRA FEW006 BKN008TCU 18/17 Q1010 GRN GRN BECMG WHT
  • 140908Z 27008KT 4000 -SHRA FEW006 BKN008TCU 19/17 Q1010 RESHRA GRN GRN BECMG WHT
  • 140906Z 27008KT 7000 -SHRA FEW006 BKN009TCU 19/17 Q1010 RESHRA GRN GRN BECMG WHT
  • 140845Z 26005KT 8000 VCSH FEW006 BKN012TCU 19/17 Q1010 RESHRA GRN GRN BECMG WHT
  • 140835Z 26007KT 5000 SHRA FEW006 BKN010TCU 19/17 Q1010 GRN GRN BECMG WHT
  • 140820Z 27006KT 7000 VCSH FEW008 BKN012 BKN100 19/16 Q1010 GRN GRN BECMG WHT
  • 140745Z 26004KT 8000 VCSH FEW008 BKN010 BKN030 18/17 Q1009 GRN GRN
  • 140737Z 26003KT 5000 -RA BR FEW008 BKN010 18/17 Q1009 GRN GRN
  • 140720Z 26006KT 3600 -RA BR FEW008 BKN010 18/16 Q1009 YLO GRN TEMPO YLO
  • 140709Z 25005KT 4800 -RA BR FEW008 BKN010 18/16 Q1009 GRN GRN TEMPO YLO

TAF TAF ETHB
Valide du 14 à 08h jusqu'au 14 à 17h UTC


140711Z 1408/1417 24008KT 6000 -RA BKN010 BKN020
BECMG 1408/1410 26012KT 9000 NSW SCT012 BKN030
TEMPO 1408/1417 27015G25KT 4000 SHRA BKN010 BKN025CB
Pas de NOTAMs connus pour ce terrain.



MET'MAP, la Météo Aéronautique d'un coup d'oeil ! - Copyright ORBIFLY Décembre 2007 - Disclaimer

ORBIFLY MET'MAP TEAM :

Programmation & Développement : Alexandra Zaïnal
Conception & Développement : Baudouin d'Aumeries
Co-Programmation & Développement : Marc-Olivier Méhu
Soutien technique & logistique : Manuel Goepfert

Contact : metmap@orbifly.com




SOURCES & CREDITS :

   NOAA